CPA881 KLAX-VHHH
Flight info
| Callsign | CPA881 |
|---|---|
| Flight time | N/A |
| Altitude | 34000 |
| Route | SUMMR2 MCKEY DCT CINNY DCT BAART R464 BARAZ DCT AXELE DCT 30N148W 29N155W 29N160W 29N170W 29N180E/N0492F360 29N170E 28N160E 27N150E/N0490F380 DCT VASKO DCT SALVA R595 TUNTO DCT IGURU/N0488F400 G581 ELATO V522 ABBEY |
| Aircraft | A35K/H-SDE2E3GHIJ3J4J5LM1ORWXY/LB1D1 |
Departure
| Time | N/A |
|---|---|
| Airport | Los Angeles International Airport (KLAX) |
Arrival
| Time | 2026-05-04 00:34 |
|---|---|
| Airport | Hong Kong International Airport (VHHH) |
| Time | Latitude | Longitude | Altitude | Speed | Heading |
|---|---|---|---|---|---|
| 2026-05-04 00:01 | 22.31523 | 116.58878 | 40022 ft | 433 kts | 268° |
| 2026-05-04 00:01 | 22.31457 | 116.55943 | 40031 ft | 433 kts | 268° |
| 2026-05-04 00:01 | 22.31307 | 116.49442 | 40031 ft | 433 kts | 268° |
| 2026-05-04 00:02 | 22.31154 | 116.42946 | 40032 ft | 433 kts | 268° |
| 2026-05-04 00:02 | 22.31000 | 116.36494 | 40032 ft | 433 kts | 268° |
| 2026-05-04 00:03 | 22.30843 | 116.30000 | 40032 ft | 433 kts | 268° |
| 2026-05-04 00:03 | 22.30683 | 116.23506 | 40029 ft | 432 kts | 268° |
| 2026-05-04 00:04 | 22.30520 | 116.17018 | 40026 ft | 432 kts | 268° |
| 2026-05-04 00:04 | 22.30355 | 116.10524 | 40031 ft | 432 kts | 268° |
| 2026-05-04 00:05 | 22.30187 | 116.04038 | 40023 ft | 432 kts | 268° |
| 2026-05-04 00:05 | 22.30017 | 115.97548 | 40035 ft | 432 kts | 268° |
| 2026-05-04 00:06 | 22.29844 | 115.91066 | 40032 ft | 431 kts | 268° |
| 2026-05-04 00:06 | 22.29670 | 115.84598 | 40026 ft | 430 kts | 268° |
| 2026-05-04 00:07 | 22.29496 | 115.78179 | 40029 ft | 430 kts | 268° |
| 2026-05-04 00:07 | 22.29326 | 115.71718 | 40026 ft | 430 kts | 268° |
| 2026-05-04 00:08 | 22.29155 | 115.65255 | 40027 ft | 430 kts | 268° |
| 2026-05-04 00:08 | 22.28979 | 115.58804 | 40036 ft | 430 kts | 268° |
| 2026-05-04 00:09 | 22.28801 | 115.52357 | 39959 ft | 430 kts | 268° |
| 2026-05-04 00:09 | 22.28711 | 115.49134 | 39731 ft | 429 kts | 268° |
| 2026-05-04 00:09 | 22.28620 | 115.45916 | 39497 ft | 429 kts | 268° |
| 2026-05-04 00:10 | 22.28529 | 115.42700 | 39224 ft | 427 kts | 268° |
| 2026-05-04 00:10 | 22.28438 | 115.39506 | 38722 ft | 424 kts | 268° |
| 2026-05-04 00:10 | 22.28347 | 115.36331 | 38036 ft | 422 kts | 268° |
| 2026-05-04 00:10 | 22.28255 | 115.33172 | 37399 ft | 420 kts | 268° |
| 2026-05-04 00:11 | 22.28163 | 115.30017 | 36772 ft | 419 kts | 268° |
| 2026-05-04 00:11 | 22.28066 | 115.26879 | 36126 ft | 418 kts | 268° |
| 2026-05-04 00:11 | 22.27969 | 115.23740 | 35466 ft | 418 kts | 268° |
| 2026-05-04 00:11 | 22.27871 | 115.20600 | 34791 ft | 419 kts | 268° |
| 2026-05-04 00:12 | 22.27772 | 115.17439 | 34027 ft | 423 kts | 268° |
| 2026-05-04 00:12 | 22.27672 | 115.14259 | 33173 ft | 426 kts | 268° |
| 2026-05-04 00:12 | 22.27572 | 115.11055 | 32371 ft | 428 kts | 267° |
| 2026-05-04 00:12 | 22.27470 | 115.07831 | 31540 ft | 431 kts | 267° |
| 2026-05-04 00:13 | 22.27366 | 115.04589 | 30706 ft | 434 kts | 267° |
| 2026-05-04 00:13 | 22.27262 | 115.01320 | 29797 ft | 438 kts | 267° |
| 2026-05-04 00:13 | 22.27156 | 114.98038 | 29061 ft | 436 kts | 267° |
| 2026-05-04 00:13 | 22.27052 | 114.94822 | 28414 ft | 433 kts | 267° |
| 2026-05-04 00:14 | 22.26947 | 114.91589 | 27777 ft | 429 kts | 267° |
| 2026-05-04 00:14 | 22.26840 | 114.88386 | 27164 ft | 426 kts | 267° |
| 2026-05-04 00:14 | 22.26736 | 114.85205 | 26545 ft | 423 kts | 267° |
| 2026-05-04 00:14 | 22.26526 | 114.82053 | 25911 ft | 419 kts | 261° |
| 2026-05-04 00:15 | 22.25792 | 114.79030 | 25303 ft | 417 kts | 249° |
| 2026-05-04 00:15 | 22.24413 | 114.76286 | 24679 ft | 417 kts | 236° |
| 2026-05-04 00:15 | 22.22497 | 114.73937 | 24067 ft | 418 kts | 227° |
| 2026-05-04 00:15 | 22.20395 | 114.71769 | 23412 ft | 417 kts | 226° |
| 2026-05-04 00:16 | 22.18291 | 114.69636 | 22720 ft | 414 kts | 226° |
| 2026-05-04 00:16 | 22.16208 | 114.67516 | 22087 ft | 409 kts | 226° |
| 2026-05-04 00:16 | 22.14151 | 114.65418 | 21493 ft | 405 kts | 226° |
| 2026-05-04 00:16 | 22.12120 | 114.63340 | 20878 ft | 401 kts | 226° |
| 2026-05-04 00:17 | 22.10108 | 114.61278 | 20253 ft | 397 kts | 226° |
| 2026-05-04 00:17 | 22.08117 | 114.59238 | 19639 ft | 394 kts | 225° |
| 2026-05-04 00:17 | 22.06135 | 114.57208 | 19023 ft | 391 kts | 225° |
| 2026-05-04 00:17 | 22.04173 | 114.55190 | 18392 ft | 389 kts | 226° |
| 2026-05-04 00:18 | 22.02418 | 114.52992 | 17689 ft | 385 kts | 237° |
| 2026-05-04 00:18 | 22.01179 | 114.50464 | 17084 ft | 380 kts | 246° |
| 2026-05-04 00:18 | 22.00164 | 114.47849 | 16474 ft | 376 kts | 248° |
| 2026-05-04 00:18 | 21.99186 | 114.45255 | 15867 ft | 372 kts | 248° |
| 2026-05-04 00:19 | 21.98213 | 114.42683 | 15263 ft | 369 kts | 248° |
| 2026-05-04 00:19 | 21.97257 | 114.40169 | 14669 ft | 366 kts | 248° |
| 2026-05-04 00:19 | 21.96291 | 114.37639 | 14066 ft | 364 kts | 249° |
| 2026-05-04 00:19 | 21.95330 | 114.35129 | 13405 ft | 361 kts | 249° |
| 2026-05-04 00:20 | 21.94379 | 114.32644 | 12817 ft | 357 kts | 249° |
| 2026-05-04 00:20 | 21.93436 | 114.30187 | 12197 ft | 353 kts | 249° |
| 2026-05-04 00:20 | 21.92505 | 114.27759 | 11702 ft | 346 kts | 249° |
| 2026-05-04 00:20 | 21.91606 | 114.25422 | 11563 ft | 329 kts | 249° |
| 2026-05-04 00:21 | 21.90750 | 114.23197 | 11437 ft | 313 kts | 249° |
| 2026-05-04 00:21 | 21.90061 | 114.21040 | 11304 ft | 297 kts | 258° |
| 2026-05-04 00:21 | 21.89941 | 114.18880 | 11180 ft | 283 kts | 276° |
| 2026-05-04 00:21 | 21.90456 | 114.16890 | 11055 ft | 272 kts | 292° |
| 2026-05-04 00:22 | 21.91309 | 114.15118 | 10928 ft | 261 kts | 296° |
| 2026-05-04 00:22 | 21.92198 | 114.13428 | 10815 ft | 259 kts | 297° |
| 2026-05-04 00:22 | 21.93084 | 114.11742 | 10644 ft | 258 kts | 296° |
| 2026-05-04 00:22 | 21.93962 | 114.10059 | 10348 ft | 257 kts | 296° |
| 2026-05-04 00:23 | 21.94834 | 114.08382 | 10020 ft | 256 kts | 296° |
| 2026-05-04 00:23 | 21.95715 | 114.06677 | 9702 ft | 268 kts | 296° |
| 2026-05-04 00:23 | 21.96635 | 114.04896 | 9558 ft | 274 kts | 296° |
| 2026-05-04 00:23 | 21.97557 | 114.03113 | 9127 ft | 273 kts | 297° |
| 2026-05-04 00:24 | 21.98483 | 114.01321 | 8617 ft | 273 kts | 297° |
| 2026-05-04 00:24 | 21.99403 | 113.99540 | 8254 ft | 271 kts | 297° |
| 2026-05-04 00:24 | 22.00319 | 113.97765 | 7907 ft | 271 kts | 297° |
| 2026-05-04 00:24 | 22.01231 | 113.95995 | 7552 ft | 270 kts | 297° |
| 2026-05-04 00:25 | 22.02141 | 113.94231 | 7214 ft | 269 kts | 297° |
| 2026-05-04 00:25 | 22.03048 | 113.92470 | 6878 ft | 268 kts | 298° |
| 2026-05-04 00:25 | 22.03950 | 113.90719 | 6540 ft | 267 kts | 298° |
| 2026-05-04 00:25 | 22.04834 | 113.89006 | 6276 ft | 261 kts | 298° |
| 2026-05-04 00:26 | 22.05698 | 113.87328 | 6030 ft | 253 kts | 298° |
| 2026-05-04 00:26 | 22.06548 | 113.85678 | 5665 ft | 250 kts | 298° |
| 2026-05-04 00:26 | 22.07389 | 113.84041 | 5274 ft | 249 kts | 298° |
| 2026-05-04 00:26 | 22.08224 | 113.82418 | 4937 ft | 246 kts | 298° |
| 2026-05-04 00:27 | 22.09047 | 113.80818 | 4731 ft | 243 kts | 298° |
| 2026-05-04 00:27 | 22.09866 | 113.79223 | 4583 ft | 243 kts | 298° |
| 2026-05-04 00:27 | 22.10823 | 113.77748 | 4442 ft | 237 kts | 315° |
| 2026-05-04 00:27 | 22.12170 | 113.76803 | 4329 ft | 226 kts | 332° |
| 2026-05-04 00:28 | 22.13565 | 113.76104 | 4190 ft | 216 kts | 334° |
| 2026-05-04 00:28 | 22.14907 | 113.75452 | 4066 ft | 208 kts | 334° |
| 2026-05-04 00:28 | 22.16191 | 113.74823 | 3958 ft | 196 kts | 334° |
| 2026-05-04 00:28 | 22.17386 | 113.74236 | 3895 ft | 186 kts | 334° |
| 2026-05-04 00:29 | 22.18565 | 113.73650 | 3774 ft | 187 kts | 334° |
| 2026-05-04 00:29 | 22.19748 | 113.73060 | 3612 ft | 187 kts | 335° |
| 2026-05-04 00:29 | 22.20972 | 113.72625 | 3427 ft | 186 kts | 353° |
| 2026-05-04 00:29 | 22.22226 | 113.72877 | 3263 ft | 186 kts | 26° |
| 2026-05-04 00:30 | 22.23333 | 113.73591 | 3078 ft | 184 kts | 32° |
| 2026-05-04 00:30 | 22.24394 | 113.74359 | 2903 ft | 181 kts | 33° |
| 2026-05-04 00:30 | 22.25422 | 113.75102 | 2728 ft | 177 kts | 33° |
| 2026-05-04 00:30 | 22.26396 | 113.75919 | 2535 ft | 179 kts | 45° |
| 2026-05-04 00:31 | 22.27052 | 113.77048 | 2375 ft | 179 kts | 69° |
| 2026-05-04 00:31 | 22.27400 | 113.78333 | 2216 ft | 178 kts | 71° |
| 2026-05-04 00:31 | 22.27797 | 113.79574 | 2005 ft | 172 kts | 67° |
| 2026-05-04 00:31 | 22.28193 | 113.80767 | 1771 ft | 166 kts | 69° |
| 2026-05-04 00:32 | 22.28546 | 113.81882 | 1551 ft | 155 kts | 68° |
| 2026-05-04 00:32 | 22.28886 | 113.82942 | 1339 ft | 140 kts | 68° |
| 2026-05-04 00:32 | 22.29192 | 113.83891 | 1177 ft | 133 kts | 68° |
| 2026-05-04 00:32 | 22.29498 | 113.84839 | 1020 ft | 134 kts | 68° |
| 2026-05-04 00:33 | 22.29810 | 113.85789 | 837 ft | 135 kts | 68° |
| 2026-05-04 00:33 | 22.30416 | 113.87701 | 468 ft | 134 kts | 68° |
| 2026-05-04 00:33 | 22.30728 | 113.88654 | 307 ft | 135 kts | 70° |
| 2026-05-04 00:34 | 22.31035 | 113.89619 | 147 ft | 137 kts | 71° |
| 2026-05-04 00:34 | 22.31348 | 113.90585 | 37 ft | 129 kts | 72° |
| 2026-05-04 00:34 | 22.31567 | 113.91275 | 38 ft | 56 kts | 71° |
| 2026-05-04 00:34 | 22.31639 | 113.91507 | 38 ft | 28 kts | 75° |
| 2026-05-04 00:35 | 22.31648 | 113.91711 | 39 ft | 27 kts | 97° |
| 2026-05-04 00:35 | 22.31624 | 113.91857 | 38 ft | 15 kts | 101° |
| 2026-05-04 00:35 | 22.31612 | 113.91978 | 38 ft | 14 kts | 84° |
| 2026-05-04 00:35 | 22.31557 | 113.92046 | 38 ft | 14 kts | 159° |
| 2026-05-04 00:36 | 22.31501 | 113.92068 | 38 ft | 0 kts | 161° |
| 2026-05-04 00:36 | 22.31492 | 113.92071 | 38 ft | 3 kts | 161° |
| 2026-05-04 00:36 | 22.31462 | 113.92082 | 38 ft | 0 kts | 161° |
| 2026-05-04 00:37 | 22.31461 | 113.92082 | 38 ft | 1 kts | 161° |
| 2026-05-04 00:37 | 22.31431 | 113.92098 | 38 ft | 8 kts | 140° |
| 2026-05-04 00:37 | 22.31395 | 113.92169 | 38 ft | 13 kts | 115° |
| 2026-05-04 00:37 | 22.31351 | 113.92267 | 38 ft | 16 kts | 116° |
| 2026-05-04 00:38 | 22.31298 | 113.92385 | 38 ft | 18 kts | 116° |
| 2026-05-04 00:38 | 22.31257 | 113.92476 | 38 ft | 12 kts | 116° |
| 2026-05-04 00:38 | 22.31217 | 113.92542 | 38 ft | 4 kts | 157° |
| 2026-05-04 00:38 | 22.31188 | 113.92534 | 38 ft | 6 kts | 195° |
| 2026-05-04 00:39 | 22.31153 | 113.92542 | 38 ft | 5 kts | 140° |
| 2026-05-04 00:39 | 22.31132 | 113.92580 | 38 ft | 3 kts | 114° |
| 2026-05-04 00:39 | 22.31129 | 113.92587 | 38 ft | 0 kts | 114° |